Aeroporto :
LOGIN :

Iscrizione | Disclaimer

   EN    FR    IT 

 










Sommario :    VFR   VFR Marginale   IFR   IFR Intensivo   IFR Molto Intensivo
Visibilità : 
Base nubi : 
>= 8 km
>= 3000ft
5 / 8 km
1000 / 3000 ft
1500m / 5 km
500 / 1000 ft
800 / 1500m
200 / 500 ft
< 800m
< 200 ft
Simboli :   Temporali  Nebbia  Neve Forte  Precipitazioni Forti  Vento > 20 kt
SIGMETs :   Varie  Temporali  Ghiacco  Turbolenza  Onda orograficha  Ceneri Vulcaniche






- Altitudine del aeroporto : 19 ft
- Codice IATA : BEB


EGPL - Benbecula

ULTIMO METAR :
  • 011950Z AUTO 27013KT 9999 BKN031/// 08/04 Q1016

METARs OBSOLETI :
  • 011920Z AUTO 26013KT 9999 FEW024/// BKN031/// 08/05 Q1016
  • 011850Z AUTO 27010KT 9999 FEW022/// BKN030/// 08/06 Q1017
  • 011820Z AUTO 28010KT 9999 FEW034/// 08/06 Q1017
  • 011750Z AUTO 29011KT 9999 SCT025/// 08/05 Q1017
  • 011720Z AUTO 29011KT 9999 FEW025/// 09/05 Q1018
  • 011650Z AUTO 30013KT 9999 SCT020/// BKN026/// BKN033/// 09/06 Q1018

Previsioni scadute.
ATIS : +44 1870 604 818



MetMap, La meteo Aeronautica in un colpo d'occhio ! - Copyright ORBIFLY Dicembre 2007 - Disclaimer

ORBIFLY MET'MAP TEAM :

Programmazione e sviluppo : Alexandra Zaïnal
Concezione : Baudouin d'Aumeries
Aiuto per la programmazione : Marc-Olivier Méhu
Supporto tecnico e logistico : Manuel Goepfert
Aiuto per la traduzione : Arnaldo La Scala

Contatto : metmap@orbifly.com




FONTI E CREDITI :

   NOAA